sensor_id;sensor_type;location;lat;lon;timestamp;temperature;humidity
67572;SHT31;54397;47.506;19.158;2024-01-15T00:02:21;2.24;68.82
67572;SHT31;54397;47.506;19.158;2024-01-15T00:05:48;2.29;68.73
67572;SHT31;54397;47.506;19.158;2024-01-15T00:09:13;2.39;68.32
67572;SHT31;54397;47.506;19.158;2024-01-15T00:12:35;1.97;69.49
67572;SHT31;54397;47.506;19.158;2024-01-15T00:15:58;2.28;68.96
67572;SHT31;54397;47.506;19.158;2024-01-15T00:19:21;2.31;69.21
67572;SHT31;54397;47.506;19.158;2024-01-15T00:22:48;2.14;70.52
67572;SHT31;54397;47.506;19.158;2024-01-15T00:26:12;2.32;69.45
67572;SHT31;54397;47.506;19.158;2024-01-15T00:29:37;2.42;69.10
67572;SHT31;54397;47.506;19.158;2024-01-15T00:32:58;2.39;69.79
67572;SHT31;54397;47.506;19.158;2024-01-15T00:36:20;2.59;69.13
67572;SHT31;54397;47.506;19.158;2024-01-15T00:39:42;2.49;68.96
67572;SHT31;54397;47.506;19.158;2024-01-15T00:43:06;2.35;69.12
67572;SHT31;54397;47.506;19.158;2024-01-15T00:46:29;2.44;68.82
67572;SHT31;54397;47.506;19.158;2024-01-15T00:49:53;2.31;69.62
67572;SHT31;54397;47.506;19.158;2024-01-15T00:53:15;2.45;69.47
67572;SHT31;54397;47.506;19.158;2024-01-15T00:56:38;2.57;69.16
67572;SHT31;54397;47.506;19.158;2024-01-15T01:00:03;2.71;68.49
67572;SHT31;54397;47.506;19.158;2024-01-15T01:03:27;2.72;68.73
67572;SHT31;54397;47.506;19.158;2024-01-15T01:06:51;2.80;68.42
67572;SHT31;54397;47.506;19.158;2024-01-15T01:10:16;2.73;68.46
67572;SHT31;54397;47.506;19.158;2024-01-15T01:13:38;2.86;68.27
67572;SHT31;54397;47.506;19.158;2024-01-15T01:17:00;2.89;68.15
67572;SHT31;54397;47.506;19.158;2024-01-15T01:20:21;2.86;68.24
67572;SHT31;54397;47.506;19.158;2024-01-15T01:23:46;2.63;69.23
67572;SHT31;54397;47.506;19.158;2024-01-15T01:27:10;2.50;69.44
67572;SHT31;54397;47.506;19.158;2024-01-15T01:30:31;2.75;69.27
67572;SHT31;54397;47.506;19.158;2024-01-15T01:33:56;2.84;68.85
67572;SHT31;54397;47.506;19.158;2024-01-15T01:37:20;2.92;68.59
67572;SHT31;54397;47.506;19.158;2024-01-15T01:40:42;2.92;68.52
67572;SHT31;54397;47.506;19.158;2024-01-15T01:44:04;2.90;68.53
67572;SHT31;54397;47.506;19.158;2024-01-15T01:47:28;2.92;68.82
67572;SHT31;54397;47.506;19.158;2024-01-15T01:50:53;2.92;69.12
67572;SHT31;54397;47.506;19.158;2024-01-15T01:54:16;2.73;69.34
67572;SHT31;54397;47.506;19.158;2024-01-15T01:57:41;2.96;68.69
67572;SHT31;54397;47.506;19.158;2024-01-15T02:01:03;2.93;68.64
67572;SHT31;54397;47.506;19.158;2024-01-15T02:04:26;2.93;68.68
67572;SHT31;54397;47.506;19.158;2024-01-15T02:07:50;2.89;68.67
67572;SHT31;54397;47.506;19.158;2024-01-15T02:11:12;2.75;69.50
67572;SHT31;54397;47.506;19.158;2024-01-15T02:14:34;2.66;69.05
67572;SHT31;54397;47.506;19.158;2024-01-15T02:21:18;2.80;69.23
67572;SHT31;54397;47.506;19.158;2024-01-15T02:24:43;2.60;69.38
67572;SHT31;54397;47.506;19.158;2024-01-15T02:28:05;2.83;68.72
67572;SHT31;54397;47.506;19.158;2024-01-15T02:31:27;2.73;68.86
67572;SHT31;54397;47.506;19.158;2024-01-15T02:34:49;2.69;69.20
67572;SHT31;54397;47.506;19.158;2024-01-15T02:38:11;2.53;69.50
67572;SHT31;54397;47.506;19.158;2024-01-15T02:41:33;2.48;70.02
67572;SHT31;54397;47.506;19.158;2024-01-15T02:44:58;2.45;69.80
67572;SHT31;54397;47.506;19.158;2024-01-15T02:48:19;2.28;69.66
67572;SHT31;54397;47.506;19.158;2024-01-15T02:51:41;2.53;69.82
67572;SHT31;54397;47.506;19.158;2024-01-15T02:55:03;2.59;69.09
67572;SHT31;54397;47.506;19.158;2024-01-15T02:58:25;2.59;69.02
67572;SHT31;54397;47.506;19.158;2024-01-15T03:01:46;2.50;69.60
67572;SHT31;54397;47.506;19.158;2024-01-15T03:05:11;2.50;69.08
67572;SHT31;54397;47.506;19.158;2024-01-15T03:08:36;2.39;69.08
67572;SHT31;54397;47.506;19.158;2024-01-15T03:11:58;2.35;69.58
67572;SHT31;54397;47.506;19.158;2024-01-15T03:15:19;2.32;68.99
67572;SHT31;54397;47.506;19.158;2024-01-15T03:18:44;2.20;69.00
67572;SHT31;54397;47.506;19.158;2024-01-15T03:22:05;1.94;68.84
67572;SHT31;54397;47.506;19.158;2024-01-15T03:25:30;2.08;68.79
67572;SHT31;54397;47.506;19.158;2024-01-15T03:28:53;2.21;67.91
67572;SHT31;54397;47.506;19.158;2024-01-15T03:32:18;2.24;67.46
67572;SHT31;54397;47.506;19.158;2024-01-15T03:35:41;2.13;70.04
67572;SHT31;54397;47.506;19.158;2024-01-15T03:39:02;2.15;69.52
67572;SHT31;54397;47.506;19.158;2024-01-15T03:42:27;2.21;68.04
67572;SHT31;54397;47.506;19.158;2024-01-15T03:45:48;2.15;68.55
67572;SHT31;54397;47.506;19.158;2024-01-15T03:49:10;1.87;69.72
67572;SHT31;54397;47.506;19.158;2024-01-15T03:52:32;1.91;69.45
67572;SHT31;54397;47.506;19.158;2024-01-15T03:55:54;2.14;68.55
67572;SHT31;54397;47.506;19.158;2024-01-15T03:59:15;2.01;68.39
67572;SHT31;54397;47.506;19.158;2024-01-15T04:02:39;1.83;69.68
67572;SHT31;54397;47.506;19.158;2024-01-15T04:06:01;1.93;69.34
67572;SHT31;54397;47.506;19.158;2024-01-15T04:09:25;1.96;69.36
67572;SHT31;54397;47.506;19.158;2024-01-15T04:12:47;1.98;69.10
67572;SHT31;54397;47.506;19.158;2024-01-15T04:16:09;1.74;69.89
67572;SHT31;54397;47.506;19.158;2024-01-15T04:19:31;1.62;69.18
67572;SHT31;54397;47.506;19.158;2024-01-15T04:22:57;1.64;69.63
67572;SHT31;54397;47.506;19.158;2024-01-15T04:26:19;1.81;68.87
67572;SHT31;54397;47.506;19.158;2024-01-15T04:29:43;1.62;69.31
67572;SHT31;54397;47.506;19.158;2024-01-15T04:33:08;1.69;69.48
67572;SHT31;54397;47.506;19.158;2024-01-15T04:36:30;1.66;69.43
67572;SHT31;54397;47.506;19.158;2024-01-15T04:39:52;1.67;68.80
67572;SHT31;54397;47.506;19.158;2024-01-15T04:43:18;1.62;68.61
67572;SHT31;54397;47.506;19.158;2024-01-15T04:46:40;1.55;69.14
67572;SHT31;54397;47.506;19.158;2024-01-15T04:50:02;1.34;69.74
67572;SHT31;54397;47.506;19.158;2024-01-15T04:53:26;1.40;68.67
67572;SHT31;54397;47.506;19.158;2024-01-15T04:56:48;1.76;68.25
67572;SHT31;54397;47.506;19.158;2024-01-15T05:00:10;1.66;68.60
67572;SHT31;54397;47.506;19.158;2024-01-15T05:03:34;1.29;69.72
67572;SHT31;54397;47.506;19.158;2024-01-15T05:07:01;1.36;69.43
67572;SHT31;54397;47.506;19.158;2024-01-15T05:10:23;1.00;70.62
67572;SHT31;54397;47.506;19.158;2024-01-15T05:13:45;1.38;68.89
67572;SHT31;54397;47.506;19.158;2024-01-15T05:17:06;1.39;68.21
67572;SHT31;54397;47.506;19.158;2024-01-15T05:20:33;1.64;68.51
67572;SHT31;54397;47.506;19.158;2024-01-15T05:23:55;1.76;67.80
67572;SHT31;54397;47.506;19.158;2024-01-15T05:27:17;1.50;68.56
67572;SHT31;54397;47.506;19.158;2024-01-15T05:30:41;1.29;69.38
67572;SHT31;54397;47.506;19.158;2024-01-15T05:34:03;1.15;69.86
67572;SHT31;54397;47.506;19.158;2024-01-15T05:37:25;1.43;68.27
67572;SHT31;54397;47.506;19.158;2024-01-15T05:40:47;1.45;68.62
67572;SHT31;54397;47.506;19.158;2024-01-15T05:44:11;1.25;69.16
67572;SHT31;54397;47.506;19.158;2024-01-15T05:47:35;1.40;68.54
67572;SHT31;54397;47.506;19.158;2024-01-15T05:50:57;1.32;68.59
67572;SHT31;54397;47.506;19.158;2024-01-15T05:54:19;1.31;69.05
67572;SHT31;54397;47.506;19.158;2024-01-15T05:57:45;1.22;69.24
67572;SHT31;54397;47.506;19.158;2024-01-15T06:01:09;1.25;68.34
67572;SHT31;54397;47.506;19.158;2024-01-15T06:04:33;1.18;69.86
67572;SHT31;54397;47.506;19.158;2024-01-15T06:07:55;1.21;71.41
67572;SHT31;54397;47.506;19.158;2024-01-15T06:11:19;1.42;70.82
67572;SHT31;54397;47.506;19.158;2024-01-15T06:14:43;1.43;70.91
67572;SHT31;54397;47.506;19.158;2024-01-15T06:18:05;1.24;70.71
67572;SHT31;54397;47.506;19.158;2024-01-15T06:21:27;1.35;70.54
67572;SHT31;54397;47.506;19.158;2024-01-15T06:24:51;1.42;70.32
67572;SHT31;54397;47.506;19.158;2024-01-15T06:28:13;1.31;67.83
67572;SHT31;54397;47.506;19.158;2024-01-15T06:31:39;1.05;68.82
67572;SHT31;54397;47.506;19.158;2024-01-15T06:35:04;1.02;69.00
67572;SHT31;54397;47.506;19.158;2024-01-15T06:38:26;1.14;69.14
67572;SHT31;54397;47.506;19.158;2024-01-15T06:41:48;1.18;69.85
67572;SHT31;54397;47.506;19.158;2024-01-15T06:45:09;1.08;70.81
67572;SHT31;54397;47.506;19.158;2024-01-15T06:48:31;1.04;70.95
67572;SHT31;54397;47.506;19.158;2024-01-15T06:51:53;1.24;70.57
67572;SHT31;54397;47.506;19.158;2024-01-15T06:55:17;1.35;69.47
67572;SHT31;54397;47.506;19.158;2024-01-15T06:58:39;1.48;70.12
67572;SHT31;54397;47.506;19.158;2024-01-15T07:02:01;1.45;70.90
67572;SHT31;54397;47.506;19.158;2024-01-15T07:05:27;1.56;70.57
67572;SHT31;54397;47.506;19.158;2024-01-15T07:08:51;1.46;71.01
67572;SHT31;54397;47.506;19.158;2024-01-15T07:12:13;1.55;70.67
67572;SHT31;54397;47.506;19.158;2024-01-15T07:15:35;1.52;70.79
67572;SHT31;54397;47.506;19.158;2024-01-15T07:19:01;1.67;70.37
67572;SHT31;54397;47.506;19.158;2024-01-15T07:22:23;1.86;70.67
67572;SHT31;54397;47.506;19.158;2024-01-15T07:25:46;1.91;70.62
67572;SHT31;54397;47.506;19.158;2024-01-15T07:29:10;2.07;71.46
67572;SHT31;54397;47.506;19.158;2024-01-15T07:32:32;2.99;91.19
67572;SHT31;54397;47.506;19.158;2024-01-15T07:35:56;3.45;91.13
67572;SHT31;54397;47.506;19.158;2024-01-15T07:39:21;3.73;88.02
67572;SHT31;54397;47.506;19.158;2024-01-15T07:42:45;3.76;79.69
67572;SHT31;54397;47.506;19.158;2024-01-15T07:46:09;3.68;69.20
67572;SHT31;54397;47.506;19.158;2024-01-15T07:49:30;3.51;67.66
67572;SHT31;54397;47.506;19.158;2024-01-15T07:52:52;3.42;67.39
67572;SHT31;54397;47.506;19.158;2024-01-15T07:56:14;3.15;68.09
67572;SHT31;54397;47.506;19.158;2024-01-15T07:59:36;2.90;68.77
67572;SHT31;54397;47.506;19.158;2024-01-15T08:03:01;2.92;68.29
67572;SHT31;54397;47.506;19.158;2024-01-15T08:06:25;2.69;68.92
67572;SHT31;54397;47.506;19.158;2024-01-15T08:09:47;2.92;69.28
67572;SHT31;54397;47.506;19.158;2024-01-15T08:13:10;3.08;69.05
67572;SHT31;54397;47.506;19.158;2024-01-15T08:16:37;3.27;68.05
67572;SHT31;54397;47.506;19.158;2024-01-15T08:20:01;3.51;67.61
67572;SHT31;54397;47.506;19.158;2024-01-15T08:23:24;3.69;67.61
67572;SHT31;54397;47.506;19.158;2024-01-15T08:26:46;4.00;66.35
67572;SHT31;54397;47.506;19.158;2024-01-15T08:30:08;4.10;66.65
67572;SHT31;54397;47.506;19.158;2024-01-15T08:33:33;4.58;65.75
67572;SHT31;54397;47.506;19.158;2024-01-15T08:37:00;4.77;65.06
67572;SHT31;54397;47.506;19.158;2024-01-15T08:40:22;5.14;64.28
67572;SHT31;54397;47.506;19.158;2024-01-15T08:43:43;5.54;61.52
67572;SHT31;54397;47.506;19.158;2024-01-15T08:47:05;5.92;58.78
67572;SHT31;54397;47.506;19.158;2024-01-15T08:50:27;6.16;58.08
67572;SHT31;54397;47.506;19.158;2024-01-15T08:53:49;6.40;56.46
67572;SHT31;54397;47.506;19.158;2024-01-15T08:57:10;5.50;57.33
67572;SHT31;54397;47.506;19.158;2024-01-15T09:00:33;5.85;57.21
67572;SHT31;54397;47.506;19.158;2024-01-15T09:03:57;6.14;55.56
67572;SHT31;54397;47.506;19.158;2024-01-15T09:07:19;6.23;54.37
67572;SHT31;54397;47.506;19.158;2024-01-15T09:10:41;6.65;54.53
67572;SHT31;54397;47.506;19.158;2024-01-15T09:14:03;6.78;53.79
67572;SHT31;54397;47.506;19.158;2024-01-15T09:17:25;6.61;53.15
67572;SHT31;54397;47.506;19.158;2024-01-15T09:20:46;7.13;60.45
67572;SHT31;54397;47.506;19.158;2024-01-15T09:24:08;7.63;71.92
67572;SHT31;54397;47.506;19.158;2024-01-15T09:27:30;8.33;63.38
67572;SHT31;54397;47.506;19.158;2024-01-15T09:30:52;8.81;67.68
67572;SHT31;54397;47.506;19.158;2024-01-15T09:34:14;8.53;54.16
67572;SHT31;54397;47.506;19.158;2024-01-15T09:37:39;8.41;48.03
67572;SHT31;54397;47.506;19.158;2024-01-15T09:41:11;8.36;47.89
67572;SHT31;54397;47.506;19.158;2024-01-15T09:44:35;7.92;48.65
67572;SHT31;54397;47.506;19.158;2024-01-15T09:47:59;8.22;47.85
67572;SHT31;54397;47.506;19.158;2024-01-15T09:51:24;8.01;46.89
67572;SHT31;54397;47.506;19.158;2024-01-15T09:54:47;8.36;47.54
67572;SHT31;54397;47.506;19.158;2024-01-15T09:58:09;7.50;48.67
67572;SHT31;54397;47.506;19.158;2024-01-15T10:01:34;7.96;48.34
67572;SHT31;54397;47.506;19.158;2024-01-15T10:04:58;7.96;48.70
67572;SHT31;54397;47.506;19.158;2024-01-15T10:08:19;8.17;57.16
67572;SHT31;54397;47.506;19.158;2024-01-15T10:11:44;9.29;57.90
67572;SHT31;54397;47.506;19.158;2024-01-15T10:15:11;9.20;55.91
67572;SHT31;54397;47.506;19.158;2024-01-15T10:18:34;10.28;52.55
67572;SHT31;54397;47.506;19.158;2024-01-15T10:21:58;11.22;51.85
67572;SHT31;54397;47.506;19.158;2024-01-15T10:25:23;11.56;47.60
67572;SHT31;54397;47.506;19.158;2024-01-15T10:28:50;12.18;46.61
67572;SHT31;54397;47.506;19.158;2024-01-15T10:32:14;12.61;48.16
67572;SHT31;54397;47.506;19.158;2024-01-15T10:35:37;11.43;39.47
67572;SHT31;54397;47.506;19.158;2024-01-15T10:39:03;11.24;40.43
67572;SHT31;54397;47.506;19.158;2024-01-15T10:42:25;11.40;40.77
67572;SHT31;54397;47.506;19.158;2024-01-15T10:45:48;11.93;40.37
67572;SHT31;54397;47.506;19.158;2024-01-15T10:49:14;12.30;39.63
67572;SHT31;54397;47.506;19.158;2024-01-15T10:52:37;11.97;37.08
67572;SHT31;54397;47.506;19.158;2024-01-15T10:55:59;12.01;39.08
67572;SHT31;54397;47.506;19.158;2024-01-15T10:59:23;11.79;39.10
67572;SHT31;54397;47.506;19.158;2024-01-15T11:02:47;12.18;38.18
67572;SHT31;54397;47.506;19.158;2024-01-15T11:06:21;11.72;38.68
67572;SHT31;54397;47.506;19.158;2024-01-15T11:09:45;12.21;38.41
67572;SHT31;54397;47.506;19.158;2024-01-15T11:13:09;12.04;38.34
67572;SHT31;54397;47.506;19.158;2024-01-15T11:16:54;11.28;39.35
67572;SHT31;54397;47.506;19.158;2024-01-15T11:20:18;11.83;39.29
67572;SHT31;54397;47.506;19.158;2024-01-15T11:23:56;12.32;37.74
67572;SHT31;54397;47.506;19.158;2024-01-15T11:27:42;12.49;37.42
67572;SHT31;54397;47.506;19.158;2024-01-15T11:31:07;11.77;38.44
67572;SHT31;54397;47.506;19.158;2024-01-15T11:34:52;11.77;39.60
67572;SHT31;54397;47.506;19.158;2024-01-15T11:38:26;12.27;38.82
67572;SHT31;54397;47.506;19.158;2024-01-15T11:41:49;12.88;37.63
67572;SHT31;54397;47.506;19.158;2024-01-15T11:45:23;13.48;36.39
67572;SHT31;54397;47.506;19.158;2024-01-15T11:48:47;13.14;36.38
67572;SHT31;54397;47.506;19.158;2024-01-15T11:52:16;13.50;35.70
67572;SHT31;54397;47.506;19.158;2024-01-15T11:55:44;12.85;36.23
67572;SHT31;54397;47.506;19.158;2024-01-15T11:59:07;12.31;38.30
67572;SHT31;54397;47.506;19.158;2024-01-15T12:02:32;12.41;37.53
67572;SHT31;54397;47.506;19.158;2024-01-15T12:05:55;12.89;37.27
67572;SHT31;54397;47.506;19.158;2024-01-15T12:09:19;12.00;37.27
67572;SHT31;54397;47.506;19.158;2024-01-15T12:12:59;12.61;37.21
67572;SHT31;54397;47.506;19.158;2024-01-15T12:16:21;13.10;36.04
67572;SHT31;54397;47.506;19.158;2024-01-15T12:19:44;13.28;35.77
67572;SHT31;54397;47.506;19.158;2024-01-15T12:23:06;13.14;36.00
67572;SHT31;54397;47.506;19.158;2024-01-15T12:26:30;13.26;36.10
67572;SHT31;54397;47.506;19.158;2024-01-15T12:29:57;12.68;36.39
67572;SHT31;54397;47.506;19.158;2024-01-15T12:33:20;12.05;37.51
67572;SHT31;54397;47.506;19.158;2024-01-15T12:36:42;11.98;37.90
67572;SHT31;54397;47.506;19.158;2024-01-15T12:40:08;12.27;36.67
67572;SHT31;54397;47.506;19.158;2024-01-15T12:43:33;11.46;37.97
67572;SHT31;54397;47.506;19.158;2024-01-15T12:46:55;11.63;38.77
67572;SHT31;54397;47.506;19.158;2024-01-15T12:50:19;11.90;37.97
67572;SHT31;54397;47.506;19.158;2024-01-15T12:53:42;12.25;37.56
67572;SHT31;54397;47.506;19.158;2024-01-15T12:57:03;12.10;37.74
67572;SHT31;54397;47.506;19.158;2024-01-15T13:00:25;11.77;38.20
67572;SHT31;54397;47.506;19.158;2024-01-15T13:03:48;11.94;39.71
67572;SHT31;54397;47.506;19.158;2024-01-15T13:07:09;12.05;37.94
67572;SHT31;54397;47.506;19.158;2024-01-15T13:10:31;12.10;38.91
67572;SHT31;54397;47.506;19.158;2024-01-15T13:13:53;12.05;38.57
67572;SHT31;54397;47.506;19.158;2024-01-15T13:17:15;11.86;38.00
67572;SHT31;54397;47.506;19.158;2024-01-15T13:20:38;11.58;39.47
67572;SHT31;54397;47.506;19.158;2024-01-15T13:24:00;11.75;39.72
67572;SHT31;54397;47.506;19.158;2024-01-15T13:27:21;11.63;39.93
67572;SHT31;54397;47.506;19.158;2024-01-15T13:30:43;10.29;41.99
67572;SHT31;54397;47.506;19.158;2024-01-15T13:34:09;9.71;42.55
67572;SHT31;54397;47.506;19.158;2024-01-15T13:37:34;9.54;43.79
67572;SHT31;54397;47.506;19.158;2024-01-15T13:40:58;9.87;42.91
67572;SHT31;54397;47.506;19.158;2024-01-15T13:44:20;9.02;44.24
67572;SHT31;54397;47.506;19.158;2024-01-15T13:47:45;7.99;45.41
67572;SHT31;54397;47.506;19.158;2024-01-15T13:51:10;8.44;45.81
67572;SHT31;54397;47.506;19.158;2024-01-15T13:54:35;8.74;45.66
67572;SHT31;54397;47.506;19.158;2024-01-15T13:58:10;9.26;44.37
67572;SHT31;54397;47.506;19.158;2024-01-15T14:01:34;9.04;44.43
67572;SHT31;54397;47.506;19.158;2024-01-15T14:04:56;8.81;45.16
67572;SHT31;54397;47.506;19.158;2024-01-15T14:08:18;8.74;45.16
67572;SHT31;54397;47.506;19.158;2024-01-15T14:11:41;9.14;44.81
67572;SHT31;54397;47.506;19.158;2024-01-15T14:15:03;8.68;46.02
67572;SHT31;54397;47.506;19.158;2024-01-15T14:18:27;8.61;45.67
67572;SHT31;54397;47.506;19.158;2024-01-15T14:21:54;8.72;45.66
67572;SHT31;54397;47.506;19.158;2024-01-15T14:25:17;8.30;46.81
67572;SHT31;54397;47.506;19.158;2024-01-15T14:28:39;8.61;46.13
67572;SHT31;54397;47.506;19.158;2024-01-15T14:32:01;8.39;46.61
67572;SHT31;54397;47.506;19.158;2024-01-15T14:35:23;8.39;46.63
67572;SHT31;54397;47.506;19.158;2024-01-15T14:38:47;7.85;46.93
67572;SHT31;54397;47.506;19.158;2024-01-15T14:42:14;8.16;47.57
67572;SHT31;54397;47.506;19.158;2024-01-15T14:45:38;7.93;47.29
67572;SHT31;54397;47.506;19.158;2024-01-15T14:49:04;8.09;47.85
67572;SHT31;54397;47.506;19.158;2024-01-15T14:52:26;7.81;48.13
67572;SHT31;54397;47.506;19.158;2024-01-15T14:55:50;7.71;48.76
67572;SHT31;54397;47.506;19.158;2024-01-15T14:59:17;7.67;48.57
67572;SHT31;54397;47.506;19.158;2024-01-15T15:02:42;7.67;48.76
67572;SHT31;54397;47.506;19.158;2024-01-15T15:06:07;7.88;48.40
67572;SHT31;54397;47.506;19.158;2024-01-15T15:09:31;7.79;48.79
67572;SHT31;54397;47.506;19.158;2024-01-15T15:12:55;7.30;49.55
67572;SHT31;54397;47.506;19.158;2024-01-15T15:16:19;7.43;49.87
67572;SHT31;54397;47.506;19.158;2024-01-15T15:19:41;7.31;49.85
67572;SHT31;54397;47.506;19.158;2024-01-15T15:23:04;7.16;50.17
67572;SHT31;54397;47.506;19.158;2024-01-15T15:26:29;7.26;50.20
67572;SHT31;54397;47.506;19.158;2024-01-15T15:29:51;7.54;49.41
67572;SHT31;54397;47.506;19.158;2024-01-15T15:33:17;7.46;49.25
67572;SHT31;54397;47.506;19.158;2024-01-15T15:36:40;7.38;49.61
67572;SHT31;54397;47.506;19.158;2024-01-15T15:40:03;7.30;49.27
67572;SHT31;54397;47.506;19.158;2024-01-15T15:43:32;7.42;50.74
67572;SHT31;54397;47.506;19.158;2024-01-15T15:46:56;7.53;49.25
67572;SHT31;54397;47.506;19.158;2024-01-15T15:50:21;7.53;49.44
67572;SHT31;54397;47.506;19.158;2024-01-15T15:53:43;7.34;49.33
67572;SHT31;54397;47.506;19.158;2024-01-15T15:57:05;7.34;49.11
67572;SHT31;54397;47.506;19.158;2024-01-15T16:00:27;7.23;49.19
67572;SHT31;54397;47.506;19.158;2024-01-15T16:03:50;7.15;49.85
67572;SHT31;54397;47.506;19.158;2024-01-15T16:07:12;7.34;48.60
67572;SHT31;54397;47.506;19.158;2024-01-15T16:10:38;6.78;49.89
67572;SHT31;54397;47.506;19.158;2024-01-15T16:14:04;7.02;50.16
67572;SHT31;54397;47.506;19.158;2024-01-15T16:17:26;6.96;50.51
67572;SHT31;54397;47.506;19.158;2024-01-15T16:21:09;6.91;50.29
67572;SHT31;54397;47.506;19.158;2024-01-15T16:24:53;7.10;48.89
67572;SHT31;54397;47.506;19.158;2024-01-15T16:28:22;7.17;49.45
67572;SHT31;54397;47.506;19.158;2024-01-15T16:31:43;7.15;49.29
67572;SHT31;54397;47.506;19.158;2024-01-15T16:35:06;7.22;48.57
67572;SHT31;54397;47.506;19.158;2024-01-15T16:43:09;7.05;49.32
67572;SHT31;54397;47.506;19.158;2024-01-15T16:46:33;6.38;50.48
67572;SHT31;54397;47.506;19.158;2024-01-15T16:49:55;6.55;50.01
67572;SHT31;54397;47.506;19.158;2024-01-15T16:53:21;6.30;50.15
67572;SHT31;54397;47.506;19.158;2024-01-15T16:56:48;6.51;50.55
67572;SHT31;54397;47.506;19.158;2024-01-15T17:00:13;6.54;50.78
67572;SHT31;54397;47.506;19.158;2024-01-15T17:03:35;6.69;50.60
67572;SHT31;54397;47.506;19.158;2024-01-15T17:06:59;6.75;49.03
67572;SHT31;54397;47.506;19.158;2024-01-15T17:10:21;6.45;49.22
67572;SHT31;54397;47.506;19.158;2024-01-15T17:13:45;6.44;50.61
67572;SHT31;54397;47.506;19.158;2024-01-15T17:17:06;6.65;49.68
67572;SHT31;54397;47.506;19.158;2024-01-15T17:20:28;6.33;50.62
67572;SHT31;54397;47.506;19.158;2024-01-15T17:23:52;6.19;49.89
67572;SHT31;54397;47.506;19.158;2024-01-15T17:27:16;6.44;49.80
67572;SHT31;54397;47.506;19.158;2024-01-15T17:30:40;6.59;50.05
67572;SHT31;54397;47.506;19.158;2024-01-15T17:34:04;6.57;49.66
67572;SHT31;54397;47.506;19.158;2024-01-15T17:37:28;6.48;50.23
67572;SHT31;54397;47.506;19.158;2024-01-15T17:40:55;5.78;50.96
67572;SHT31;54397;47.506;19.158;2024-01-15T17:44:19;6.06;51.30
67572;SHT31;54397;47.506;19.158;2024-01-15T17:47:43;6.00;51.92
67572;SHT31;54397;47.506;19.158;2024-01-15T17:51:05;5.75;52.70
67572;SHT31;54397;47.506;19.158;2024-01-15T17:54:27;6.09;51.81
67572;SHT31;54397;47.506;19.158;2024-01-15T17:57:52;5.95;51.32
67572;SHT31;54397;47.506;19.158;2024-01-15T18:01:17;5.73;52.49
67572;SHT31;54397;47.506;19.158;2024-01-15T18:04:44;5.88;52.47
67572;SHT31;54397;47.506;19.158;2024-01-15T18:08:08;5.62;53.18
67572;SHT31;54397;47.506;19.158;2024-01-15T18:11:30;5.72;52.77
67572;SHT31;54397;47.506;19.158;2024-01-15T18:14:55;5.58;53.40
67572;SHT31;54397;47.506;19.158;2024-01-15T18:18:19;5.59;53.41
67572;SHT31;54397;47.506;19.158;2024-01-15T18:21:46;5.83;53.05
67572;SHT31;54397;47.506;19.158;2024-01-15T18:25:09;5.81;53.00
67572;SHT31;54397;47.506;19.158;2024-01-15T18:28:30;5.75;53.94
67572;SHT31;54397;47.506;19.158;2024-01-15T18:31:52;6.24;71.21
67572;SHT31;54397;47.506;19.158;2024-01-15T18:35:14;6.78;64.36
67572;SHT31;54397;47.506;19.158;2024-01-15T18:38:36;6.93;60.73
67572;SHT31;54397;47.506;19.158;2024-01-15T18:42:00;6.92;59.03
67572;SHT31;54397;47.506;19.158;2024-01-15T18:45:22;7.30;58.56
67572;SHT31;54397;47.506;19.158;2024-01-15T18:48:44;7.20;50.81
67572;SHT31;54397;47.506;19.158;2024-01-15T18:52:09;6.72;51.01
67572;SHT31;54397;47.506;19.158;2024-01-15T18:55:34;6.48;51.66
67572;SHT31;54397;47.506;19.158;2024-01-15T18:58:57;5.81;53.56
67572;SHT31;54397;47.506;19.158;2024-01-15T19:02:18;6.05;52.73
67572;SHT31;54397;47.506;19.158;2024-01-15T19:05:40;5.82;53.00
67572;SHT31;54397;47.506;19.158;2024-01-15T19:09:02;6.41;65.95
67572;SHT31;54397;47.506;19.158;2024-01-15T19:12:25;6.78;64.32
67572;SHT31;54397;47.506;19.158;2024-01-15T19:15:47;7.06;61.27
67572;SHT31;54397;47.506;19.158;2024-01-15T19:19:09;7.26;61.46
67572;SHT31;54397;47.506;19.158;2024-01-15T19:22:31;6.91;62.76
67572;SHT31;54397;47.506;19.158;2024-01-15T19:25:52;6.93;62.73
67572;SHT31;54397;47.506;19.158;2024-01-15T19:29:14;7.31;58.82
67572;SHT31;54397;47.506;19.158;2024-01-15T19:32:39;7.50;58.68
67572;SHT31;54397;47.506;19.158;2024-01-15T19:40:42;7.22;59.35
67572;SHT31;54397;47.506;19.158;2024-01-15T19:44:05;7.30;60.40
67572;SHT31;54397;47.506;19.158;2024-01-15T19:47:27;7.16;50.85
67572;SHT31;54397;47.506;19.158;2024-01-15T19:50:49;6.89;50.77
67572;SHT31;54397;47.506;19.158;2024-01-15T19:54:12;6.48;51.90
67572;SHT31;54397;47.506;19.158;2024-01-15T19:57:36;6.57;51.90
67572;SHT31;54397;47.506;19.158;2024-01-15T20:01:01;6.47;52.36
67572;SHT31;54397;47.506;19.158;2024-01-15T20:04:23;6.54;52.02
67572;SHT31;54397;47.506;19.158;2024-01-15T20:07:45;5.88;53.77
67572;SHT31;54397;47.506;19.158;2024-01-15T20:11:12;6.19;53.08
67572;SHT31;54397;47.506;19.158;2024-01-15T20:14:34;6.13;53.08
67572;SHT31;54397;47.506;19.158;2024-01-15T20:17:57;5.89;53.85
67572;SHT31;54397;47.506;19.158;2024-01-15T20:21:19;6.19;54.86
67572;SHT31;54397;47.506;19.158;2024-01-15T20:24:45;7.23;52.28
67572;SHT31;54397;47.506;19.158;2024-01-15T20:28:07;6.96;51.00
67572;SHT31;54397;47.506;19.158;2024-01-15T20:31:31;6.54;51.34
67572;SHT31;54397;47.506;19.158;2024-01-15T20:34:58;6.19;52.74
67572;SHT31;54397;47.506;19.158;2024-01-15T20:38:22;6.30;53.08
67572;SHT31;54397;47.506;19.158;2024-01-15T20:41:44;6.23;52.97
67572;SHT31;54397;47.506;19.158;2024-01-15T20:45:08;5.98;53.76
67572;SHT31;54397;47.506;19.158;2024-01-15T20:48:29;6.19;53.46
67572;SHT31;54397;47.506;19.158;2024-01-15T20:51:52;5.95;52.64
67572;SHT31;54397;47.506;19.158;2024-01-15T20:55:16;5.88;52.99
67572;SHT31;54397;47.506;19.158;2024-01-15T20:58:38;5.72;53.87
67572;SHT31;54397;47.506;19.158;2024-01-15T21:02:01;5.78;53.87
67572;SHT31;54397;47.506;19.158;2024-01-15T21:05:24;5.82;53.12
67572;SHT31;54397;47.506;19.158;2024-01-15T21:08:46;5.69;53.59
67572;SHT31;54397;47.506;19.158;2024-01-15T21:12:08;5.54;54.57
67572;SHT31;54397;47.506;19.158;2024-01-15T21:15:32;5.61;54.39
67572;SHT31;54397;47.506;19.158;2024-01-15T21:18:54;5.66;53.87
67572;SHT31;54397;47.506;19.158;2024-01-15T21:22:16;5.61;53.66
67572;SHT31;54397;47.506;19.158;2024-01-15T21:25:38;5.40;53.76
67572;SHT31;54397;47.506;19.158;2024-01-15T21:29:02;5.26;54.40
67572;SHT31;54397;47.506;19.158;2024-01-15T21:32:28;5.24;54.17
67572;SHT31;54397;47.506;19.158;2024-01-15T21:35:50;5.09;54.89